Time;durP1;ratioP1;P1;durP2;ratioP2;P2;SDS_P1;SDS_P2;PMS_P1;PMS_P2;Temp;Humidity;BMP_temperature;BMP_pressure;BME280_temperature;BME280_humidity;BME280_pressure;Samples;Min_cycle;Max_cycle;Signal;HPM_P1;HPM_P2
2022/06/30 00:00:02;;;;;;;2.30;2.10;;;19.50;92.80;;;;;;4118659;28;20947;-75
2022/06/30 00:02:11;;;;;;;2.83;1.92;;;19.50;92.90;;;;;;4120900;28;20059;-75
2022/06/30 00:04:13;;;;;;;2.97;2.67;;;19.50;93.10;;;;;;4121381;28;20058;-76
2022/06/30 00:06:14;;;;;;;3.45;2.40;;;19.50;93.00;;;;;;4124118;28;21215;-74
2022/06/30 00:08:16;;;;;;;3.88;2.50;;;19.50;93.00;;;;;;4127159;28;20063;-75
2022/06/30 00:10:18;;;;;;;4.15;2.10;;;19.40;93.10;;;;;;4123547;28;20154;-74
2022/06/30 00:12:19;;;;;;;4.82;2.50;;;19.40;93.10;;;;;;4122484;28;20063;-75
2022/06/30 00:14:21;;;;;;;2.35;2.15;;;19.40;93.20;;;;;;4123046;28;20830;-75
2022/06/30 00:16:24;;;;;;;3.63;2.22;;;19.40;93.20;;;;;;4122674;28;20090;-75
2022/06/30 00:18:26;;;;;;;2.20;2.10;;;19.30;93.20;;;;;;4122182;28;20059;-75
2022/06/30 00:20:30;;;;;;;4.63;2.20;;;19.30;93.20;;;;;;4123731;28;20063;-75
2022/06/30 00:22:32;;;;;;;2.28;1.83;;;19.30;93.30;;;;;;4124676;28;20066;-75
2022/06/30 00:24:34;;;;;;;3.40;2.85;;;19.30;93.30;;;;;;4123653;28;20066;-75
2022/06/30 00:26:36;;;;;;;2.33;2.13;;;19.20;93.30;;;;;;4123945;28;20059;-75
2022/06/30 00:28:38;;;;;;;4.57;2.20;;;19.10;93.50;;;;;;4123652;28;20067;-75
2022/06/30 00:30:39;;;;;;;2.97;2.40;;;19.10;93.70;;;;;;4124341;28;20071;-75
2022/06/30 00:32:41;;;;;;;2.88;2.47;;;19.10;93.90;;;;;;4123543;28;20059;-75
2022/06/30 00:34:43;;;;;;;4.65;3.22;;;19.10;93.90;;;;;;4126641;28;20066;-75
2022/06/30 00:36:44;;;;;;;3.70;3.13;;;19.10;94.00;;;;;;4126056;28;20055;-75
2022/06/30 00:38:46;;;;;;;6.82;2.97;;;19.00;94.00;;;;;;4122303;28;20835;-75
2022/06/30 00:40:48;;;;;;;6.50;3.97;;;19.10;94.00;;;;;;4121572;28;20062;-75
2022/06/30 00:42:49;;;;;;;4.95;3.13;;;19.00;94.00;;;;;;4121294;28;20062;-75
2022/06/30 00:44:51;;;;;;;4.97;2.60;;;19.00;94.10;;;;;;4128092;28;20065;-75
2022/06/30 00:46:53;;;;;;;4.72;2.70;;;19.00;94.10;;;;;;4118485;28;20058;-75
2022/06/30 00:48:54;;;;;;;6.65;2.30;;;19.00;94.10;;;;;;4119861;28;20059;-75
2022/06/30 00:50:58;;;;;;;3.05;2.70;;;19.00;94.20;;;;;;4125362;28;20074;-75
2022/06/30 00:53:02;;;;;;;4.10;2.65;;;19.00;94.20;;;;;;4123177;28;20922;-75
2022/06/30 00:55:05;;;;;;;3.33;2.38;;;18.90;94.20;;;;;;4117528;28;20178;-75
2022/06/30 00:57:09;;;;;;;3.05;2.75;;;18.90;94.30;;;;;;4116104;28;20081;-75
2022/06/30 00:59:14;;;;;;;3.05;2.78;;;18.90;94.30;;;;;;4118458;28;20153;-75
2022/06/30 01:01:17;;;;;;;4.50;2.78;;;18.90;94.30;;;;;;4119714;28;20059;-75
2022/06/30 01:03:20;;;;;;;3.63;2.45;;;18.90;94.50;;;;;;4120097;28;20561;-75
2022/06/30 01:05:24;;;;;;;2.55;2.35;;;18.80;94.60;;;;;;4120525;28;20067;-75
2022/06/30 01:07:29;;;;;;;2.72;2.50;;;18.90;94.80;;;;;;4121340;28;20782;-75
2022/06/30 01:14:11;;;;;;;2.47;2.15;;;19.10;94.60;;;;;;4122207;28;20854;-75
2022/06/30 01:16:13;;;;;;;3.95;2.45;;;19.10;94.40;;;;;;4127889;28;20066;-75
2022/06/30 01:18:14;;;;;;;3.38;2.00;;;19.10;94.30;;;;;;4124075;28;20094;-75
2022/06/30 01:20:24;;;;;;;5.40;2.10;;;19.00;94.20;;;;;;4122116;28;20756;-75
2022/06/30 01:22:26;;;;;;;6.65;3.45;;;19.00;94.20;;;;;;4122966;28;20681;-75
2022/06/30 01:24:28;;;;;;;4.22;2.00;;;18.90;94.30;;;;;;4125396;28;20059;-75
2022/06/30 01:26:30;;;;;;;1.75;1.65;;;18.90;94.40;;;;;;4124003;28;20088;-75
2022/06/30 01:28:31;;;;;;;2.15;1.95;;;18.90;94.70;;;;;;4124965;28;20055;-75
2022/06/30 01:30:33;;;;;;;4.45;2.22;;;18.90;94.60;;;;;;4126776;28;20802;-75
2022/06/30 01:32:35;;;;;;;1.75;1.63;;;18.90;94.50;;;;;;4125126;28;20158;-75
2022/06/30 01:34:36;;;;;;;3.83;2.50;;;18.90;94.40;;;;;;4125985;28;20905;-75
2022/06/30 01:36:38;;;;;;;7.25;3.20;;;18.90;94.40;;;;;;4126956;28;20058;-75
2022/06/30 01:38:40;;;;;;;5.22;3.30;;;18.80;94.40;;;;;;4125361;28;20861;-75
2022/06/30 01:40:42;;;;;;;5.22;2.78;;;18.80;94.40;;;;;;4126587;28;20664;-75
2022/06/30 01:42:44;;;;;;;9.70;3.95;;;18.80;94.40;;;;;;4125760;28;20058;-75
2022/06/30 01:44:45;;;;;;;9.15;2.42;;;18.80;94.70;;;;;;4126343;28;20086;-75
2022/06/30 01:46:50;;;;;;;3.28;2.42;;;18.80;95.00;;;;;;4128123;28;20871;-75
2022/06/30 01:48:52;;;;;;;2.63;2.42;;;18.90;95.20;;;;;;4127701;28;20070;-75
2022/06/30 01:50:54;;;;;;;3.25;2.25;;;19.00;94.80;;;;;;4124716;28;20149;-75
2022/06/30 01:52:57;;;;;;;3.10;2.55;;;19.00;94.40;;;;;;4125403;28;21009;-75
2022/06/30 01:54:59;;;;;;;7.47;3.45;;;19.00;94.20;;;;;;4126314;28;20071;-75
2022/06/30 01:57:00;;;;;;;6.75;3.03;;;19.00;94.10;;;;;;4121290;28;20065;-75
2022/06/30 01:59:02;;;;;;;3.70;2.70;;;18.90;94.10;;;;;;4123558;28;20078;-75
2022/06/30 02:01:04;;;;;;;4.10;2.50;;;18.90;94.10;;;;;;4120974;28;20162;-75
2022/06/30 02:03:06;;;;;;;3.97;2.40;;;18.80;94.20;;;;;;4121275;28;20059;-75
2022/06/30 02:05:09;;;;;;;6.35;2.67;;;18.70;94.40;;;;;;4121872;28;20063;-75
2022/06/30 02:07:11;;;;;;;3.10;2.55;;;18.70;94.50;;;;;;4128681;28;20702;-75
2022/06/30 02:09:12;;;;;;;5.53;2.63;;;18.70;94.70;;;;;;4120319;28;20055;-75
2022/06/30 02:11:14;;;;;;;2.20;2.10;;;18.60;94.80;;;;;;4123140;28;20085;-75
2022/06/30 02:13:15;;;;;;;8.50;2.47;;;18.60;94.90;;;;;;4117626;28;20059;-75
2022/06/30 02:15:22;;;;;;;3.13;2.20;;;18.60;94.90;;;;;;4122095;28;20707;-75
2022/06/30 02:17:24;;;;;;;3.25;2.35;;;18.50;94.90;;;;;;4121326;28;20874;-75
2022/06/30 02:19:26;;;;;;;6.32;2.10;;;18.50;95.00;;;;;;4119980;28;20055;-75
2022/06/30 02:21:27;;;;;;;2.85;2.35;;;18.50;95.10;;;;;;4118445;28;20062;-75
2022/06/30 02:23:29;;;;;;;4.13;2.70;;;18.40;95.20;;;;;;4118295;28;20063;-75
2022/06/30 02:25:32;;;;;;;2.20;2.00;;;18.40;95.30;;;;;;4119293;28;20070;-75
2022/06/30 02:27:34;;;;;;;2.38;2.00;;;18.30;95.40;;;;;;4121132;28;20063;-75
2022/06/30 02:29:36;;;;;;;3.83;2.17;;;18.30;95.30;;;;;;4126889;28;20080;-75
2022/06/30 02:31:38;;;;;;;5.18;2.30;;;18.30;95.30;;;;;;4124198;28;20055;-75
2022/06/30 02:33:40;;;;;;;2.72;2.03;;;18.20;95.80;;;;;;4122989;28;20050;-75
2022/06/30 02:35:42;;;;;;;2.40;2.20;;;18.20;95.70;;;;;;4121499;28;20775;-75
2022/06/30 02:37:43;;;;;;;2.33;2.13;;;18.20;95.90;;;;;;4122194;28;20059;-75
2022/06/30 02:39:45;;;;;;;3.80;2.42;;;18.10;96.00;;;;;;4123262;28;20086;-75
2022/06/30 02:41:47;;;;;;;2.50;2.30;;;18.10;96.10;;;;;;4123320;28;20059;-75
2022/06/30 02:43:49;;;;;;;2.95;1.95;;;18.00;96.20;;;;;;4126024;28;20114;-75
2022/06/30 02:45:50;;;;;;;2.45;2.25;;;18.00;96.30;;;;;;4124335;28;21178;-75
2022/06/30 02:47:52;;;;;;;4.15;2.70;;;18.00;96.30;;;;;;4124007;28;20605;-74
2022/06/30 02:49:53;;;;;;;2.22;2.03;;;18.00;96.50;;;;;;4123582;28;20154;-75
2022/06/30 02:51:55;;;;;;;2.90;2.47;;;17.90;96.60;;;;;;4126094;28;20061;-75
2022/06/30 02:53:57;;;;;;;2.10;2.00;;;17.90;96.80;;;;;;4126042;28;20051;-75
2022/06/30 02:55:59;;;;;;;3.55;2.75;;;17.90;97.00;;;;;;4126238;28;20066;-75
2022/06/30 02:58:00;;;;;;;3.55;2.42;;;18.00;97.10;;;;;;4124977;28;20785;-75
2022/06/30 03:00:04;;;;;;;2.53;2.33;;;18.00;97.20;;;;;;4124050;28;20063;-75
2022/06/30 03:02:06;;;;;;;4.15;2.80;;;18.00;97.20;;;;;;4125057;28;20165;-73
2022/06/30 03:04:08;;;;;;;4.25;2.38;;;18.00;97.10;;;;;;4124501;28;20110;-76
2022/06/30 03:06:09;;;;;;;4.15;2.25;;;17.90;97.00;;;;;;4126933;28;20047;-75
2022/06/30 03:08:11;;;;;;;3.35;2.97;;;17.90;97.00;;;;;;4124736;28;20870;-75
2022/06/30 03:10:13;;;;;;;2.97;2.33;;;18.00;96.90;;;;;;4123059;28;20066;-75
2022/06/30 03:12:14;;;;;;;5.22;2.42;;;17.90;97.00;;;;;;4122455;28;20063;-75
2022/06/30 03:14:16;;;;;;;3.13;2.83;;;17.80;97.10;;;;;;4120631;28;20055;-75
2022/06/30 03:16:19;;;;;;;5.13;3.10;;;17.80;97.30;;;;;;4121178;28;20066;-76
2022/06/30 03:18:20;;;;;;;3.25;2.72;;;17.70;97.40;;;;;;4128861;28;20929;-76
2022/06/30 03:20:23;;;;;;;2.88;2.60;;;17.70;97.60;;;;;;4120855;28;20162;-75
2022/06/30 03:22:24;;;;;;;3.58;3.00;;;17.70;97.80;;;;;;4123246;28;20150;-75
2022/06/30 03:24:26;;;;;;;4.70;2.80;;;17.70;97.90;;;;;;4124885;28;20059;-76
2022/06/30 03:26:28;;;;;;;4.30;2.88;;;17.70;97.90;;;;;;4119025;28;20091;-77
2022/06/30 03:28:30;;;;;;;7.15;2.95;;;17.70;97.90;;;;;;4117518;28;20062;-75
2022/06/30 03:30:32;;;;;;;3.72;2.80;;;17.60;97.80;;;;;;4118293;28;20066;-75
2022/06/30 03:32:33;;;;;;;5.00;2.85;;;17.70;98.00;;;;;;4121942;28;20054;-76
2022/06/30 03:34:35;;;;;;;4.57;2.90;;;17.60;98.10;;;;;;4122608;28;20063;-75
2022/06/30 03:36:37;;;;;;;3.33;2.75;;;17.60;98.00;;;;;;4129682;28;20069;-75
2022/06/30 03:38:38;;;;;;;3.53;3.25;;;17.60;98.20;;;;;;4119264;28;20628;-75
2022/06/30 03:40:41;;;;;;;2.97;2.78;;;17.50;98.30;;;;;;4120247;28;20059;-76
2022/06/30 03:42:42;;;;;;;5.38;2.80;;;17.50;98.60;;;;;;4121051;28;20091;-75
2022/06/30 03:44:45;;;;;;;3.30;2.70;;;17.50;98.80;;;;;;4120892;28;20134;-75
2022/06/30 03:46:47;;;;;;;3.40;2.83;;;17.50;98.90;;;;;;4120370;28;20850;-75
2022/06/30 03:48:53;;;;;;;6.72;2.45;;;17.50;98.90;;;;;;4126226;28;20961;-76
2022/06/30 03:50:55;;;;;;;2.80;2.60;;;17.50;98.90;;;;;;4124350;28;20063;-75
2022/06/30 03:52:57;;;;;;;3.88;2.40;;;17.50;99.10;;;;;;4127879;28;20965;-75
2022/06/30 03:54:59;;;;;;;3.45;3.13;;;17.50;99.10;;;;;;4125588;28;20055;-75
2022/06/30 03:57:01;;;;;;;4.75;3.28;;;17.50;99.30;;;;;;4123880;28;20897;-76
2022/06/30 03:59:09;;;;;;;6.10;2.70;;;17.60;99.40;;;;;;4121592;28;20094;-75
2022/06/30 04:01:10;;;;;;;4.05;2.85;;;17.60;99.50;;;;;;4128144;28;20059;-74
2022/06/30 04:03:12;;;;;;;4.38;2.72;;;17.60;99.40;;;;;;4119097;28;20058;-76
2022/06/30 04:05:14;;;;;;;2.85;2.65;;;17.60;99.40;;;;;;4124831;28;20161;-75
2022/06/30 04:07:16;;;;;;;3.35;3.08;;;17.60;99.40;;;;;;4125421;28;20835;-76
2022/06/30 04:09:17;;;;;;;3.55;2.88;;;17.60;99.30;;;;;;4124535;28;20061;-74
2022/06/30 04:11:19;;;;;;;2.88;2.60;;;17.60;99.40;;;;;;4121945;28;20161;-75
2022/06/30 04:13:21;;;;;;;5.88;2.95;;;17.60;99.50;;;;;;4123985;28;20885;-75
2022/06/30 04:15:22;;;;;;;4.05;2.83;;;17.60;99.70;;;;;;4125097;28;20063;-75
2022/06/30 04:17:24;;;;;;;4.65;3.03;;;17.60;99.80;;;;;;4122978;28;20063;-75
2022/06/30 04:19:26;;;;;;;3.67;3.15;;;17.60;99.90;;;;;;4124245;28;20055;-75
2022/06/30 04:21:28;;;;;;;5.95;3.13;;;17.70;99.90;;;;;;4125149;28;20058;-75
2022/06/30 04:23:30;;;;;;;4.40;2.97;;;17.70;99.90;;;;;;4123076;28;20799;-74
2022/06/30 04:25:31;;;;;;;4.25;3.83;;;17.80;99.90;;;;;;4127836;28;20150;-74
2022/06/30 04:27:33;;;;;;;4.40;2.67;;;17.80;99.90;;;;;;4129115;28;20077;-74
2022/06/30 04:29:35;;;;;;;3.40;3.10;;;17.90;99.90;;;;;;4129733;28;20059;-75
2022/06/30 04:33:57;;;;;;;3.42;2.97;;;17.90;99.90;;;;;;4126460;28;20063;-75
2022/06/30 04:35:59;;;;;;;8.32;3.63;;;17.90;99.90;;;;;;4126600;28;20055;-75
2022/06/30 04:38:02;;;;;;;5.85;3.22;;;18.00;99.90;;;;;;4127522;28;20957;-75
2022/06/30 04:42:25;;;;;;;3.67;3.38;;;18.00;99.90;;;;;;4130034;28;20169;-74
2022/06/30 04:44:27;;;;;;;3.85;3.20;;;18.10;99.90;;;;;;4128409;28;20054;-75
2022/06/30 04:46:29;;;;;;;7.05;3.75;;;18.20;99.90;;;;;;4127741;28;20066;-75
2022/06/30 04:48:30;;;;;;;3.83;3.53;;;18.20;99.90;;;;;;4129588;28;20082;-76
2022/06/30 04:50:32;;;;;;;3.88;3.45;;;18.20;99.90;;;;;;4128660;28;20061;-77
2022/06/30 04:52:34;;;;;;;3.20;2.97;;;18.20;99.90;;;;;;4127973;28;20058;-74
2022/06/30 04:54:38;;;;;;;3.78;3.25;;;18.30;99.90;;;;;;4122284;28;20203;-74
2022/06/30 04:56:40;;;;;;;5.72;3.35;;;18.30;99.90;;;;;;4120840;28;20059;-74
2022/06/30 04:58:42;;;;;;;4.45;3.35;;;18.30;99.90;;;;;;4131506;28;20066;-73
2022/06/30 05:00:43;;;;;;;4.25;3.20;;;18.40;99.90;;;;;;4134270;28;20144;-75
2022/06/30 05:02:45;;;;;;;3.80;3.55;;;18.40;99.90;;;;;;4131278;28;20058;-75
2022/06/30 05:04:47;;;;;;;4.45;3.25;;;18.50;99.90;;;;;;4135472;28;20100;-76
2022/06/30 05:06:49;;;;;;;3.67;3.33;;;18.50;99.90;;;;;;4135908;28;20890;-77
2022/06/30 05:08:50;;;;;;;5.50;3.13;;;18.60;99.90;;;;;;4136071;28;20064;-76
2022/06/30 05:10:52;;;;;;;3.45;3.10;;;18.60;99.90;;;;;;4134043;28;20058;-74
2022/06/30 05:13:00;;;;;;;3.13;2.90;;;18.70;99.90;;;;;;4134634;28;20102;-75
2022/06/30 05:15:01;;;;;;;4.55;3.67;;;18.80;99.90;;;;;;4132668;28;20100;-75
2022/06/30 05:17:04;;;;;;;4.88;4.30;;;18.80;99.90;;;;;;4132385;28;20069;-76
2022/06/30 05:19:06;;;;;;;5.38;3.70;;;18.90;99.90;;;;;;4133156;28;20104;-74
2022/06/30 05:21:07;;;;;;;5.25;3.60;;;18.90;99.90;;;;;;4132407;28;20066;-75
2022/06/30 05:23:10;;;;;;;3.80;3.50;;;19.00;99.90;;;;;;4130338;28;20114;-75
2022/06/30 05:27:32;;;;;;;4.53;3.45;;;19.10;99.90;;;;;;4131791;28;20106;-75
2022/06/30 05:29:34;;;;;;;3.47;3.13;;;19.20;99.90;;;;;;4131387;28;20058;-76
2022/06/30 05:31:38;;;;;;;4.15;3.85;;;19.20;99.90;;;;;;4131265;28;20065;-75
2022/06/30 05:33:40;;;;;;;8.02;4.95;;;19.30;99.90;;;;;;4137366;28;20116;-76
2022/06/30 05:35:42;;;;;;;6.93;3.70;;;19.40;99.90;;;;;;4135125;28;20050;-75
2022/06/30 05:37:44;;;;;;;5.30;3.33;;;19.40;99.90;;;;;;4129910;28;20157;-76
2022/06/30 05:39:45;;;;;;;8.77;3.70;;;19.50;99.90;;;;;;4136181;28;20066;-73
2022/06/30 05:41:47;;;;;;;4.47;3.95;;;19.60;99.90;;;;;;4135430;28;20094;-75
2022/06/30 05:43:51;;;;;;;10.77;4.53;;;19.60;99.90;;;;;;4137922;28;20093;-74
2022/06/30 05:45:54;;;;;;;8.15;4.78;;;19.70;99.90;;;;;;4136816;28;20054;-75
2022/06/30 05:47:56;;;;;;;10.48;4.78;;;19.70;99.90;;;;;;4124141;28;20822;-76
2022/06/30 05:49:58;;;;;;;13.48;6.30;;;19.80;99.90;;;;;;4127953;28;20644;-75
2022/06/30 05:52:00;;;;;;;5.22;4.32;;;19.90;99.80;;;;;;4124362;28;20073;-76
2022/06/30 05:54:02;;;;;;;3.38;3.08;;;20.00;99.60;;;;;;4126014;28;20062;-75
2022/06/30 05:56:04;;;;;;;5.78;3.50;;;20.00;99.40;;;;;;4121949;28;20898;-75
2022/06/30 05:58:06;;;;;;;2.88;2.67;;;20.10;99.20;;;;;;4123382;28;20063;-75
2022/06/30 06:00:08;;;;;;;3.88;3.20;;;20.20;98.90;;;;;;4128235;28;20154;-75
2022/06/30 06:02:10;;;;;;;3.63;3.33;;;20.20;98.70;;;;;;4118154;28;20063;-75
2022/06/30 06:04:12;;;;;;;3.75;3.25;;;20.30;98.60;;;;;;4123775;28;20063;-75
2022/06/30 06:06:13;;;;;;;3.00;2.80;;;20.40;98.30;;;;;;4123657;28;20810;-75
2022/06/30 06:08:15;;;;;;;2.92;2.72;;;20.40;98.10;;;;;;4123345;28;20062;-70
2022/06/30 06:10:18;;;;;;;3.95;3.03;;;20.50;98.00;;;;;;4119285;28;20833;-75
2022/06/30 06:12:21;;;;;;;5.22;3.00;;;20.50;97.80;;;;;;4128034;28;20070;-75
2022/06/30 06:14:23;;;;;;;3.78;3.38;;;20.60;97.60;;;;;;4129549;28;20055;-74
2022/06/30 06:16:25;;;;;;;2.10;2.00;;;20.60;97.50;;;;;;4133240;28;20062;-75
2022/06/30 06:18:27;;;;;;;2.55;2.35;;;20.60;97.30;;;;;;4138598;28;20062;-74
2022/06/30 06:20:28;;;;;;;2.78;2.53;;;20.70;97.20;;;;;;4136105;28;20059;-74
2022/06/30 06:22:30;;;;;;;4.07;2.38;;;20.70;97.00;;;;;;4136924;28;21208;-75
2022/06/30 06:24:32;;;;;;;2.88;2.65;;;20.80;96.90;;;;;;4133886;28;20063;-75
2022/06/30 06:26:33;;;;;;;3.47;2.40;;;20.80;96.70;;;;;;4137639;28;21241;-75
2022/06/30 06:30:55;;;;;;;3.28;2.83;;;20.90;96.50;;;;;;4128922;28;20174;-75
2022/06/30 06:32:57;;;;;;;8.45;3.17;;;20.90;96.30;;;;;;4136427;28;20066;-75
2022/06/30 06:34:59;;;;;;;2.50;2.22;;;21.00;96.20;;;;;;4136151;28;20054;-76
2022/06/30 06:37:01;;;;;;;3.35;2.42;;;21.00;96.10;;;;;;4138240;28;20093;-75
2022/06/30 06:39:03;;;;;;;2.08;1.88;;;21.00;95.90;;;;;;4136155;28;20069;-75
2022/06/30 06:41:07;;;;;;;4.38;2.65;;;21.10;95.80;;;;;;4135561;28;20637;-75
2022/06/30 06:43:09;;;;;;;2.50;2.40;;;21.10;95.80;;;;;;4163089;28;20062;-75
2022/06/30 06:45:11;;;;;;;3.25;2.95;;;21.20;95.60;;;;;;4127600;28;20726;-76
2022/06/30 06:47:13;;;;;;;3.13;2.80;;;21.20;95.40;;;;;;4125326;28;20798;-76
2022/06/30 06:49:14;;;;;;;3.55;2.38;;;21.30;95.30;;;;;;4122326;28;20062;-76
2022/06/30 06:51:16;;;;;;;4.63;2.80;;;21.30;95.20;;;;;;4126060;28;20051;-75
2022/06/30 06:53:18;;;;;;;3.85;2.50;;;21.30;95.00;;;;;;4123749;28;20051;-75
2022/06/30 06:55:20;;;;;;;11.90;2.63;;;21.40;95.00;;;;;;4125989;28;20066;-75
2022/06/30 06:57:22;;;;;;;3.90;2.53;;;21.40;94.80;;;;;;4121019;28;20177;-75
2022/06/30 06:59:24;;;;;;;3.90;2.33;;;21.40;94.80;;;;;;4123641;28;20063;-76
2022/06/30 07:01:25;;;;;;;3.95;2.67;;;21.50;94.60;;;;;;4122324;28;20055;-76
2022/06/30 07:03:29;;;;;;;5.82;2.42;;;21.50;94.50;;;;;;4119531;28;20138;-76
2022/06/30 07:05:31;;;;;;;2.35;2.25;;;21.50;94.40;;;;;;4121627;28;20138;-76
2022/06/30 07:07:34;;;;;;;2.85;2.25;;;21.50;94.30;;;;;;4123063;28;20039;-76
2022/06/30 07:09:35;;;;;;;2.25;2.15;;;21.60;94.30;;;;;;4121085;28;20626;-75
2022/06/30 07:11:37;;;;;;;3.97;2.50;;;21.60;94.10;;;;;;4118384;28;20055;-76
2022/06/30 07:13:38;;;;;;;4.75;2.10;;;21.70;94.10;;;;;;4124628;28;20059;-78
2022/06/30 07:15:40;;;;;;;3.15;2.33;;;21.70;94.00;;;;;;4132811;28;20055;-77
2022/06/30 07:17:42;;;;;;;1.88;1.77;;;21.70;93.90;;;;;;4131498;28;20063;-77
2022/06/30 07:19:43;;;;;;;4.70;2.28;;;21.70;93.70;;;;;;4118842;28;20047;-77
2022/06/30 07:21:45;;;;;;;3.35;2.55;;;21.80;93.70;;;;;;4120346;28;20090;-78
2022/06/30 07:23:47;;;;;;;2.88;2.28;;;21.80;93.60;;;;;;4125749;28;20055;-77
2022/06/30 07:25:48;;;;;;;3.42;2.05;;;21.80;93.90;;;;;;4134530;28;20039;-77
2022/06/30 07:27:51;;;;;;;2.25;1.75;;;21.80;93.40;;;;;;4125517;28;20163;-77
2022/06/30 07:29:56;;;;;;;2.67;2.47;;;21.90;93.70;;;;;;4120494;28;20783;-77
2022/06/30 07:31:58;;;;;;;2.22;2.03;;;21.90;93.30;;;;;;4129430;28;20047;-77
2022/06/30 07:34:00;;;;;;;2.33;2.03;;;21.90;93.20;;;;;;4128302;28;20062;-76
2022/06/30 07:36:02;;;;;;;2.22;2.03;;;22.00;93.20;;;;;;4124875;28;20051;-78
2022/06/30 07:38:03;;;;;;;5.13;1.90;;;22.00;93.10;;;;;;4121222;28;20063;-76
2022/06/30 07:40:07;;;;;;;3.08;1.80;;;22.00;93.00;;;;;;4123005;28;20094;-78
2022/06/30 07:42:09;;;;;;;2.00;1.77;;;22.00;92.90;;;;;;4124546;28;20065;-76
2022/06/30 07:44:11;;;;;;;2.35;1.63;;;22.10;92.90;;;;;;4120588;28;20086;-78
2022/06/30 07:46:14;;;;;;;1.67;1.58;;;22.10;92.80;;;;;;4123804;28;20097;-77
2022/06/30 07:48:16;;;;;;;2.80;2.13;;;22.10;92.70;;;;;;4121442;28;20138;-76
2022/06/30 07:50:18;;;;;;;2.97;1.95;;;22.20;92.60;;;;;;4122900;28;20059;-77
2022/06/30 07:52:20;;;;;;;1.33;1.23;;;22.20;92.60;;;;;;4125534;28;20125;-76
2022/06/30 07:54:23;;;;;;;1.80;1.70;;;22.20;92.50;;;;;;4119522;28;20058;-76
2022/06/30 07:56:25;;;;;;;2.30;2.00;;;22.20;92.40;;;;;;4124767;28;20055;-76
2022/06/30 07:58:27;;;;;;;2.03;1.92;;;22.30;92.40;;;;;;4123940;28;20054;-76
2022/06/30 08:00:28;;;;;;;2.35;2.25;;;22.30;92.30;;;;;;4124036;28;21021;-76
2022/06/30 08:02:30;;;;;;;1.85;1.75;;;22.30;92.20;;;;;;4123312;28;20078;-77
2022/06/30 08:04:33;;;;;;;2.33;1.80;;;22.30;92.10;;;;;;4125367;28;20065;-76
2022/06/30 08:06:35;;;;;;;2.28;2.08;;;22.40;92.00;;;;;;4126157;28;20095;-76
2022/06/30 08:08:36;;;;;;;2.75;2.08;;;22.40;91.90;;;;;;4122964;28;20061;-76
2022/06/30 08:10:38;;;;;;;3.05;1.60;;;22.40;91.90;;;;;;4122061;28;21273;-75
2022/06/30 08:12:40;;;;;;;2.22;2.13;;;22.40;91.80;;;;;;4122455;28;20059;-76
2022/06/30 08:14:41;;;;;;;2.50;2.20;;;22.50;91.70;;;;;;4124889;28;20099;-75
2022/06/30 08:16:43;;;;;;;2.35;2.15;;;22.50;91.60;;;;;;4128204;28;20058;-75
2022/06/30 08:18:45;;;;;;;2.30;2.10;;;22.50;91.50;;;;;;4127732;28;20166;-75
2022/06/30 08:20:47;;;;;;;2.15;2.05;;;22.50;91.40;;;;;;4124044;28;20898;-76
2022/06/30 08:22:48;;;;;;;2.35;2.20;;;22.60;91.30;;;;;;4121699;28;20090;-76
2022/06/30 08:24:51;;;;;;;2.20;2.00;;;22.60;91.30;;;;;;4124917;28;20070;-77
2022/06/30 08:26:52;;;;;;;2.10;1.90;;;22.60;91.10;;;;;;4123559;28;20055;-76
2022/06/30 08:28:54;;;;;;;2.78;2.08;;;22.60;91.00;;;;;;4120094;28;20194;-77
2022/06/30 08:30:56;;;;;;;2.45;2.25;;;22.70;91.00;;;;;;4122248;28;20063;-77
2022/06/30 08:32:57;;;;;;;2.55;2.30;;;22.70;90.90;;;;;;4120553;28;20102;-77
2022/06/30 08:34:59;;;;;;;2.58;2.30;;;22.70;90.80;;;;;;4119013;28;20162;-76
2022/06/30 08:37:01;;;;;;;2.90;2.10;;;22.70;90.80;;;;;;4119468;28;20154;-76
2022/06/30 08:39:03;;;;;;;2.70;2.28;;;22.70;90.60;;;;;;4119110;28;21165;-77
2022/06/30 08:43:27;;;;;;;2.20;2.00;;;22.80;90.50;;;;;;4125308;28;20063;-76
2022/06/30 08:45:29;;;;;;;2.30;2.10;;;22.80;90.40;;;;;;4123311;28;20098;-76
2022/06/30 08:47:31;;;;;;;4.30;2.17;;;22.80;90.30;;;;;;4122893;28;21002;-76
2022/06/30 08:49:34;;;;;;;2.38;2.17;;;22.80;90.10;;;;;;4121938;28;20077;-77
2022/06/30 08:51:38;;;;;;;3.13;2.15;;;22.90;90.10;;;;;;4130328;28;20062;-77
2022/06/30 08:53:57;;;;;;;2.95;2.53;;;22.90;90.00;;;;;;4122884;28;20067;-77
2022/06/30 08:55:59;;;;;;;5.05;2.58;;;22.90;90.00;;;;;;4123106;28;20065;-76
2022/06/30 08:58:06;;;;;;;2.70;2.50;;;23.00;89.50;;;;;;4123111;28;20182;-77
2022/06/30 09:00:09;;;;;;;2.53;2.22;;;22.90;89.40;;;;;;4124892;28;20065;-76
2022/06/30 09:02:11;;;;;;;2.35;2.25;;;23.00;89.20;;;;;;4127002;28;20212;-77
2022/06/30 09:04:14;;;;;;;2.60;2.35;;;23.00;89.00;;;;;;4123038;28;20130;-76
2022/06/30 09:06:16;;;;;;;3.45;2.25;;;23.00;88.80;;;;;;4128155;28;20134;-76
2022/06/30 09:08:36;;;;;;;8.90;2.35;;;23.10;88.60;;;;;;4126339;28;20058;-76
2022/06/30 09:10:47;;;;;;;2.47;2.15;;;23.10;88.40;;;;;;4127231;28;20055;-76
2022/06/30 09:12:57;;;;;;;6.22;2.63;;;23.10;88.40;;;;;;4127257;28;20725;-77
2022/06/30 09:15:00;;;;;;;3.25;2.17;;;23.10;87.90;;;;;;4127116;28;20059;-76
2022/06/30 09:17:08;;;;;;;2.00;1.90;;;23.10;87.60;;;;;;4125911;28;20063;-76
2022/06/30 09:19:09;;;;;;;1.70;1.60;;;23.10;88.50;;;;;;4127416;28;20062;-77
2022/06/30 09:21:17;;;;;;;2.38;1.92;;;23.20;87.50;;;;;;4121080;28;20079;-76
2022/06/30 09:23:21;;;;;;;3.03;2.08;;;23.20;87.10;;;;;;4124470;28;20170;-76
2022/06/30 09:25:30;;;;;;;2.10;1.88;;;23.20;86.10;;;;;;4125466;28;20121;-77
2022/06/30 09:27:34;;;;;;;4.68;2.00;;;23.20;85.80;;;;;;4125625;28;20182;-76
2022/06/30 09:29:50;;;;;;;2.22;1.52;;;23.20;85.30;;;;;;4124965;28;20101;-75
2022/06/30 09:32:12;;;;;;;4.68;1.77;;;23.20;85.40;;;;;;4128619;28;20069;-75
2022/06/30 09:34:21;;;;;;;3.13;1.60;;;23.20;84.90;;;;;;4123970;28;20940;-75
2022/06/30 09:36:30;;;;;;;1.80;1.70;;;23.20;84.00;;;;;;4132885;28;20069;-77
2022/06/30 09:38:35;;;;;;;1.58;1.38;;;23.20;84.00;;;;;;4109103;28;20063;-77
2022/06/30 09:41:01;;;;;;;3.22;2.05;;;23.20;83.70;;;;;;4132304;28;20066;-78
2022/06/30 09:43:05;;;;;;;1.90;1.80;;;23.20;83.80;;;;;;4167246;28;20120;-77
2022/06/30 09:45:15;;;;;;;4.05;1.88;;;23.20;83.40;;;;;;4128861;28;20062;-77
2022/06/30 09:47:17;;;;;;;2.10;1.42;;;23.30;82.90;;;;;;4125848;28;20098;-76
2022/06/30 09:49:45;;;;;;;2.28;1.70;;;23.20;82.20;;;;;;4144038;28;20145;-76
2022/06/30 09:51:48;;;;;;;2.63;1.38;;;23.20;82.60;;;;;;4132059;28;20058;-78
2022/06/30 09:54:10;;;;;;;1.70;1.60;;;23.20;82.00;;;;;;4127883;28;20083;-77
2022/06/30 09:56:14;;;;;;;3.35;1.67;;;23.30;82.20;;;;;;4138824;28;20160;-77
2022/06/30 09:58:38;;;;;;;2.20;1.98;;;23.30;81.70;;;;;;4125321;28;20185;-77
2022/06/30 10:00:45;;;;;;;1.80;1.70;;;23.30;81.40;;;;;;4126782;28;20150;-78
2022/06/30 10:02:49;;;;;;;2.13;1.92;;;23.30;80.40;;;;;;4128693;28;20090;-76
2022/06/30 10:04:56;;;;;;;5.03;1.73;;;23.30;80.20;;;;;;4132237;28;20070;-75
2022/06/30 10:06:57;;;;;;;1.88;1.60;;;23.30;81.10;;;;;;4127334;28;20902;-75
2022/06/30 10:09:06;;;;;;;3.38;2.28;;;23.30;81.10;;;;;;4125013;28;20125;-75
2022/06/30 10:11:10;;;;;;;1.63;1.52;;;23.40;80.60;;;;;;4163592;28;20659;-75
2022/06/30 10:13:16;;;;;;;2.40;2.20;;;23.40;80.50;;;;;;4128646;28;20080;-74
2022/06/30 10:15:20;;;;;;;2.00;1.80;;;23.40;80.70;;;;;;4129691;28;20069;-76
2022/06/30 10:17:25;;;;;;;3.83;2.05;;;23.40;81.10;;;;;;4124692;28;20150;-76
2022/06/30 10:19:27;;;;;;;5.28;2.00;;;23.40;80.90;;;;;;4124292;28;20070;-75
2022/06/30 10:21:29;;;;;;;2.22;2.00;;;23.40;80.70;;;;;;4127158;28;20101;-75
2022/06/30 10:23:32;;;;;;;4.03;1.92;;;23.40;80.50;;;;;;4123838;28;20069;-75
2022/06/30 10:25:34;;;;;;;2.65;2.20;;;23.50;80.80;;;;;;4124462;28;20055;-74
2022/06/30 10:27:36;;;;;;;1.70;1.60;;;23.50;80.90;;;;;;4127122;28;20107;-75
2022/06/30 10:29:40;;;;;;;3.10;2.10;;;23.50;80.10;;;;;;4128017;28;20068;-75
2022/06/30 10:31:54;;;;;;;1.73;1.63;;;23.50;80.20;;;;;;4129864;28;20066;-76
2022/06/30 10:34:22;;;;;;;3.08;1.83;;;23.50;80.30;;;;;;4136056;28;20810;-75
2022/06/30 10:36:39;;;;;;;2.20;2.00;;;23.50;80.20;;;;;;4135347;28;20181;-75
2022/06/30 10:38:56;;;;;;;3.03;2.70;;;23.50;80.20;;;;;;4134317;28;20090;-75
2022/06/30 10:41:13;;;;;;;2.15;1.80;;;23.50;79.80;;;;;;4136310;28;20882;-75
2022/06/30 10:43:16;;;;;;;1.75;1.65;;;23.50;79.70;;;;;;4134161;28;20066;-76
2022/06/30 10:45:29;;;;;;;2.35;2.20;;;23.50;79.60;;;;;;4136055;28;20089;-74
2022/06/30 10:47:31;;;;;;;1.73;1.60;;;23.60;79.80;;;;;;4136230;28;20094;-75
2022/06/30 10:49:33;;;;;;;1.88;1.77;;;23.60;79.70;;;;;;4135258;28;20066;-75
2022/06/30 10:51:35;;;;;;;5.70;2.15;;;23.60;80.00;;;;;;4135492;28;20062;-75
2022/06/30 10:53:37;;;;;;;2.13;1.92;;;23.60;80.10;;;;;;4134366;28;20059;-75
2022/06/30 10:55:49;;;;;;;4.28;2.20;;;23.60;79.50;;;;;;4135556;28;20926;-75